createdAt,value
2018-05-31T00:01:00.736Z,12.68
2018-05-31T00:02:06.972Z,14.55
2018-05-31T00:03:13.477Z,14.27
2018-05-31T00:04:20.073Z,12.82
2018-05-31T00:05:26.204Z,14.45
2018-05-31T00:06:32.397Z,15.05
2018-05-31T00:07:38.733Z,14.68
2018-05-31T00:08:48.829Z,14.30
2018-05-31T00:09:55.517Z,15.07
2018-05-31T00:11:01.864Z,16.85
2018-05-31T00:12:07.913Z,14.80
2018-05-31T00:13:13.933Z,15.10
2018-05-31T00:14:20.084Z,14.07
2018-05-31T00:15:26.187Z,15.82
2018-05-31T00:16:32.574Z,14.20
2018-05-31T00:17:38.670Z,15.88
2018-05-31T00:18:45.436Z,15.90
2018-05-31T00:19:51.499Z,14.90
2018-05-31T00:20:57.855Z,15.45
2018-05-31T00:22:04.241Z,16.80
2018-05-31T00:23:10.436Z,15.65
2018-05-31T00:24:16.756Z,17.98
2018-05-31T00:25:24.232Z,16.98
2018-05-31T00:26:30.480Z,17.58
2018-05-31T00:27:36.841Z,17.15
2018-05-31T00:28:49.931Z,17.02
2018-05-31T00:29:56.537Z,16.42
2018-05-31T00:31:03.903Z,17.83
2018-05-31T00:32:10.243Z,17.90
2018-05-31T00:33:16.598Z,17.05
2018-05-31T00:34:23.827Z,17.65
2018-05-31T00:35:33.014Z,15.75
2018-05-31T00:36:40.457Z,16.00
2018-05-31T00:37:46.691Z,15.07
2018-05-31T00:38:53.274Z,16.42
2018-05-31T00:39:59.630Z,17.05
2018-05-31T00:41:06.004Z,16.37
2018-05-31T00:42:12.282Z,17.25
2018-05-31T00:43:19.290Z,14.50
2018-05-31T00:44:25.568Z,15.90
2018-05-31T00:45:32.644Z,16.00
2018-05-31T00:46:39.084Z,16.30
2018-05-31T00:47:45.791Z,15.02
2018-05-31T00:48:52.131Z,15.18
2018-05-31T00:50:02.371Z,16.15
2018-05-31T00:51:13.568Z,15.18
2018-05-31T00:52:20.482Z,15.20
2018-05-31T00:53:32.706Z,16.48
2018-05-31T00:54:39.592Z,16.08
2018-05-31T00:55:57.229Z,15.73
2018-05-31T00:57:03.317Z,15.77
2018-05-31T00:58:14.863Z,16.90
2018-05-31T00:59:22.094Z,15.82
2018-05-31T01:00:28.576Z,16.08
2018-05-31T01:01:34.106Z,15.50
2018-05-31T01:02:40.373Z,16.45
2018-05-31T01:03:47.273Z,17.00
2018-05-31T01:04:53.484Z,16.12
2018-05-31T01:06:00.444Z,15.50
2018-05-31T01:07:09.035Z,16.85
2018-05-31T01:08:15.968Z,15.50
2018-05-31T01:09:22.216Z,18.60
2018-05-31T01:10:29.001Z,16.30
2018-05-31T01:11:35.624Z,16.77
2018-05-31T01:12:41.896Z,17.02
2018-05-31T01:13:48.230Z,17.10
2018-05-31T01:14:54.246Z,16.90
2018-05-31T01:16:00.422Z,16.95
2018-05-31T01:17:11.403Z,18.27
2018-05-31T01:18:17.789Z,16.70
2018-05-31T01:19:24.087Z,16.75
2018-05-31T01:20:30.858Z,17.15
2018-05-31T01:21:37.507Z,17.30
2018-05-31T01:22:44.907Z,17.50
2018-05-31T01:23:51.186Z,16.90
2018-05-31T01:24:57.646Z,17.50
2018-05-31T01:26:04.025Z,16.87
2018-05-31T01:27:10.344Z,18.12
2018-05-31T01:28:17.154Z,17.08
2018-05-31T01:29:24.223Z,16.77
2018-05-31T01:30:30.246Z,20.45
2018-05-31T01:31:37.060Z,18.40
2018-05-31T01:32:44.526Z,17.17
2018-05-31T01:33:50.881Z,18.77
2018-05-31T01:34:57.797Z,17.50
2018-05-31T01:36:04.405Z,17.33
2018-05-31T01:37:11.226Z,17.73
2018-05-31T01:38:29.391Z,17.67
2018-05-31T01:39:35.418Z,17.45
2018-05-31T01:40:42.197Z,17.05
2018-05-31T01:41:48.556Z,15.80
2018-05-31T01:42:55.594Z,15.40
2018-05-31T01:44:01.652Z,15.80
2018-05-31T01:45:08.924Z,17.10
2018-05-31T01:46:15.237Z,17.95
2018-05-31T01:47:22.082Z,16.65
2018-05-31T01:48:29.908Z,17.15
2018-05-31T01:49:37.347Z,15.50
2018-05-31T01:50:44.148Z,15.02
2018-05-31T01:51:50.377Z,17.20
2018-05-31T01:52:57.304Z,16.58
2018-05-31T01:54:03.810Z,15.65
2018-05-31T01:55:10.231Z,17.02
2018-05-31T01:56:16.748Z,16.48
2018-05-31T01:57:23.660Z,16.60
2018-05-31T01:58:30.736Z,14.87
2018-05-31T01:59:37.025Z,15.35
2018-05-31T02:00:44.149Z,15.48
2018-05-31T02:01:51.113Z,14.65
2018-05-31T02:02:57.496Z,14.45
2018-05-31T02:04:04.727Z,15.27
2018-05-31T02:05:11.580Z,14.70
2018-05-31T02:06:17.945Z,17.52
2018-05-31T02:07:24.893Z,14.95
2018-05-31T02:08:31.160Z,16.02
2018-05-31T02:09:37.473Z,14.82
2018-05-31T02:10:43.459Z,14.65
2018-05-31T02:11:49.428Z,15.35
2018-05-31T02:12:55.500Z,15.15
2018-05-31T02:14:01.493Z,15.95
2018-05-31T02:15:08.517Z,15.55
2018-05-31T02:16:14.935Z,14.13
2018-05-31T02:17:22.197Z,14.63
2018-05-31T02:18:28.500Z,15.18
2018-05-31T02:19:34.688Z,15.15
2018-05-31T02:20:41.614Z,17.00
2018-05-31T02:21:47.926Z,15.95
2018-05-31T02:22:54.277Z,14.25
2018-05-31T02:24:00.565Z,15.80
2018-05-31T02:25:06.641Z,15.35
2018-05-31T02:26:13.072Z,16.92
2018-05-31T02:27:19.629Z,14.43
2018-05-31T02:28:25.853Z,15.27
2018-05-31T02:29:32.145Z,17.25
2018-05-31T02:30:38.425Z,17.02
2018-05-31T02:31:44.742Z,16.20
2018-05-31T02:32:51.090Z,15.55
2018-05-31T02:33:57.324Z,16.70
2018-05-31T02:35:03.367Z,16.95
2018-05-31T02:36:10.601Z,16.27
2018-05-31T02:37:16.906Z,17.70
2018-05-31T02:38:23.382Z,18.30
2018-05-31T02:39:29.739Z,16.90
2018-05-31T02:40:35.720Z,17.50
2018-05-31T02:41:42.042Z,18.85
2018-05-31T02:42:48.118Z,15.75
2018-05-31T02:43:54.388Z,17.98
2018-05-31T02:45:00.825Z,16.80
2018-05-31T02:46:07.408Z,18.55
2018-05-31T02:47:15.445Z,18.27
2018-05-31T02:48:21.990Z,19.15
2018-05-31T02:49:28.532Z,17.75
2018-05-31T02:50:35.033Z,17.42
2018-05-31T02:51:41.523Z,18.23
2018-05-31T02:52:48.175Z,18.02
2018-05-31T02:53:54.691Z,18.12
2018-05-31T02:55:01.270Z,20.27
2018-05-31T02:56:07.580Z,17.98
2018-05-31T02:57:13.876Z,18.48
2018-05-31T02:58:20.247Z,17.58
2018-05-31T02:59:26.558Z,17.70
2018-05-31T03:00:32.842Z,17.65
2018-05-31T03:01:38.849Z,16.92
2018-05-31T03:02:45.146Z,18.70
2018-05-31T03:03:51.504Z,17.45
2018-05-31T03:04:57.808Z,16.25
2018-05-31T03:06:04.085Z,17.20
2018-05-31T03:07:10.124Z,17.60
2018-05-31T03:08:18.151Z,17.77
2018-05-31T03:09:27.207Z,19.23
2018-05-31T03:10:33.965Z,15.68
2018-05-31T03:11:41.153Z,15.63
2018-05-31T03:12:47.384Z,17.30
2018-05-31T03:13:53.649Z,16.98
2018-05-31T03:14:59.937Z,16.75
2018-05-31T03:16:06.053Z,17.98
2018-05-31T03:17:12.475Z,18.00
2018-05-31T03:18:18.772Z,16.90
2018-05-31T03:19:25.086Z,18.83
2018-05-31T03:20:31.413Z,17.83
2018-05-31T03:21:37.652Z,15.70
2018-05-31T03:22:44.008Z,16.85
2018-05-31T03:23:50.344Z,16.90
2018-05-31T03:24:56.343Z,16.83
2018-05-31T03:26:02.730Z,16.40
2018-05-31T03:27:09.688Z,17.87
2018-05-31T03:28:16.838Z,18.37
2018-05-31T03:29:23.107Z,19.02
2018-05-31T03:30:29.392Z,20.17
2018-05-31T03:31:35.731Z,20.67
2018-05-31T03:32:42.140Z,20.85
2018-05-31T03:33:48.573Z,19.48
2018-05-31T03:34:54.873Z,19.08
2018-05-31T03:36:01.261Z,19.15
2018-05-31T03:37:07.257Z,18.92
2018-05-31T03:38:13.825Z,19.15
2018-05-31T03:39:20.547Z,18.98
2018-05-31T03:40:26.963Z,18.45
2018-05-31T03:41:33.542Z,20.12
2018-05-31T03:42:39.847Z,20.10
2018-05-31T03:43:46.501Z,24.45
2018-05-31T03:44:53.947Z,21.02
2018-05-31T03:46:00.425Z,19.35
2018-05-31T03:47:09.101Z,19.95
2018-05-31T03:48:15.646Z,19.50
2018-05-31T03:49:22.466Z,21.58
2018-05-31T03:50:28.464Z,20.90
2018-05-31T03:51:34.756Z,20.70
2018-05-31T03:52:41.061Z,23.65
2018-05-31T03:53:47.479Z,21.70
2018-05-31T03:54:53.617Z,22.70
2018-05-31T03:56:00.545Z,20.98
2018-05-31T03:57:08.352Z,22.13
2018-05-31T03:58:15.019Z,23.42
2018-05-31T03:59:21.713Z,24.08
2018-05-31T04:00:28.879Z,25.52
2018-05-31T04:01:35.163Z,24.98
2018-05-31T04:02:41.660Z,22.73
2018-05-31T04:03:47.966Z,25.12
2018-05-31T04:04:54.317Z,25.40
2018-05-31T04:06:00.590Z,24.37
2018-05-31T04:07:06.920Z,25.15
2018-05-31T04:08:12.943Z,24.83
2018-05-31T04:09:19.241Z,25.90
2018-05-31T04:10:25.925Z,27.13
2018-05-31T04:11:32.573Z,28.40
2018-05-31T04:12:39.602Z,25.60
2018-05-31T04:13:46.220Z,25.48
2018-05-31T04:14:53.184Z,25.62
2018-05-31T04:15:59.465Z,26.30
2018-05-31T04:17:05.769Z,25.20
2018-05-31T04:18:12.068Z,26.80
2018-05-31T04:19:22.410Z,27.27
2018-05-31T04:20:32.419Z,27.83
2018-05-31T04:21:41.105Z,30.95
2018-05-31T04:22:47.753Z,29.00
2018-05-31T04:23:54.064Z,28.80
2018-05-31T04:25:00.412Z,28.30
2018-05-31T04:26:06.700Z,27.87
2018-05-31T04:27:13.013Z,27.20
2018-05-31T04:28:19.316Z,30.40
2018-05-31T04:29:25.644Z,30.52
2018-05-31T04:30:33.267Z,30.73
2018-05-31T04:31:40.192Z,28.67
2018-05-31T04:32:46.504Z,32.70
2018-05-31T04:33:52.836Z,29.98
2018-05-31T04:34:59.409Z,30.62
2018-05-31T04:36:05.681Z,31.35
2018-05-31T04:37:11.958Z,28.35
2018-05-31T04:38:18.279Z,31.45
2018-05-31T04:39:24.302Z,31.87
2018-05-31T04:40:32.638Z,28.30
2018-05-31T04:41:38.919Z,28.52
2018-05-31T04:42:46.177Z,29.58
2018-05-31T04:43:52.185Z,30.02
2018-05-31T04:44:58.511Z,35.50
2018-05-31T04:46:04.788Z,30.42
2018-05-31T04:47:11.119Z,26.27
2018-05-31T04:48:17.460Z,27.73
2018-05-31T04:49:23.785Z,28.08
2018-05-31T04:50:30.317Z,29.70
2018-05-31T04:51:36.591Z,28.85
2018-05-31T04:52:42.812Z,28.70
2018-05-31T04:53:49.106Z,27.85
2018-05-31T04:54:55.398Z,26.90
2018-05-31T04:56:01.712Z,28.50
2018-05-31T04:57:08.154Z,27.05
2018-05-31T04:58:14.465Z,27.45
2018-05-31T04:59:20.760Z,29.92
2018-05-31T05:00:27.100Z,27.48
2018-05-31T05:01:33.422Z,28.50
2018-05-31T05:02:39.798Z,27.35
2018-05-31T05:03:48.108Z,29.37
2018-05-31T05:04:54.377Z,28.40
2018-05-31T05:06:00.697Z,28.73
2018-05-31T05:07:07.094Z,28.45
2018-05-31T05:08:14.473Z,29.10
2018-05-31T05:09:20.769Z,28.65
2018-05-31T05:10:27.106Z,28.58
2018-05-31T05:11:33.365Z,31.80
2018-05-31T05:12:39.668Z,25.95
2018-05-31T05:13:46.003Z,30.88
2018-05-31T05:14:53.259Z,29.60
2018-05-31T05:15:59.705Z,30.75
2018-05-31T05:17:05.507Z,30.02
2018-05-31T05:18:11.855Z,31.10
2018-05-31T05:19:18.189Z,27.58
2018-05-31T05:20:24.592Z,30.08
2018-05-31T05:21:31.190Z,29.52
2018-05-31T05:22:38.091Z,28.87
2018-05-31T05:23:44.417Z,29.10
2018-05-31T05:24:51.790Z,30.15
2018-05-31T05:25:58.108Z,32.05
2018-05-31T05:27:04.357Z,29.98
2018-05-31T05:28:10.697Z,28.67
2018-05-31T05:29:17.010Z,32.83
2018-05-31T05:30:23.651Z,29.87
2018-05-31T05:31:30.144Z,31.65
2018-05-31T05:32:36.683Z,30.65
2018-05-31T05:33:43.184Z,30.17
2018-05-31T05:34:49.368Z,30.70
2018-05-31T05:35:56.031Z,32.20
2018-05-31T05:37:03.440Z,35.20
2018-05-31T05:38:10.480Z,32.97
2018-05-31T05:39:16.124Z,31.73
2018-05-31T05:40:22.211Z,35.05
2018-05-31T05:41:28.488Z,35.38
2018-05-31T05:42:34.813Z,32.95
2018-05-31T05:43:41.027Z,32.88
2018-05-31T05:44:52.979Z,35.42
2018-05-31T05:46:04.780Z,32.72
2018-05-31T05:47:11.304Z,31.37
2018-05-31T05:48:17.620Z,34.42
2018-05-31T05:49:24.851Z,32.55
2018-05-31T05:50:31.197Z,29.23
2018-05-31T05:51:37.490Z,33.63
2018-05-31T05:52:44.034Z,31.95
2018-05-31T05:53:50.248Z,32.63
2018-05-31T05:54:56.526Z,32.05
2018-05-31T05:56:02.870Z,30.65
2018-05-31T05:57:09.140Z,33.53
2018-05-31T05:58:15.480Z,32.65
2018-05-31T05:59:21.452Z,32.97
2018-05-31T06:00:27.792Z,32.20
2018-05-31T06:01:34.116Z,32.10
2018-05-31T06:02:40.207Z,30.80
2018-05-31T06:03:46.596Z,31.30
2018-05-31T06:04:52.910Z,32.72
2018-05-31T06:05:59.246Z,32.38
2018-05-31T06:07:05.558Z,31.20
2018-05-31T06:08:12.428Z,30.62
2018-05-31T06:09:19.604Z,31.20
2018-05-31T06:10:25.901Z,30.17
2018-05-31T06:11:32.485Z,30.95
2018-05-31T06:12:38.742Z,30.10
2018-05-31T06:13:44.684Z,31.42
2018-05-31T06:14:51.068Z,31.30
2018-05-31T06:15:56.898Z,31.98
2018-05-31T06:17:02.986Z,31.02
2018-05-31T06:18:09.466Z,33.17
2018-05-31T06:19:15.813Z,35.13
2018-05-31T06:20:22.141Z,32.60
2018-05-31T06:21:28.437Z,33.35
2018-05-31T06:22:34.721Z,32.30
2018-05-31T06:23:41.018Z,33.55
2018-05-31T06:24:47.352Z,32.55
2018-05-31T06:25:53.705Z,31.55
2018-05-31T06:26:59.984Z,33.50
2018-05-31T06:28:06.286Z,30.33
2018-05-31T06:29:12.582Z,32.90
2018-05-31T06:30:18.919Z,32.20
2018-05-31T06:31:25.273Z,29.17
2018-05-31T06:32:31.538Z,30.90
2018-05-31T06:33:37.870Z,30.10
2018-05-31T06:34:44.360Z,30.23
2018-05-31T06:35:50.744Z,36.00
2018-05-31T06:36:57.677Z,31.95
2018-05-31T06:38:03.349Z,30.52
2018-05-31T06:39:09.301Z,31.55
2018-05-31T06:40:15.327Z,30.95
2018-05-31T06:41:21.448Z,31.50
2018-05-31T06:42:27.697Z,31.27
2018-05-31T06:43:34.038Z,33.08
2018-05-31T06:44:41.629Z,33.95
2018-05-31T06:45:47.601Z,36.15
2018-05-31T06:46:54.025Z,32.58
2018-05-31T06:48:00.464Z,32.35
2018-05-31T06:49:06.861Z,33.28
2018-05-31T06:50:13.169Z,33.08
2018-05-31T06:51:19.576Z,38.50
2018-05-31T06:52:25.822Z,34.00
2018-05-31T06:53:32.205Z,33.72
2018-05-31T06:54:39.318Z,30.48
2018-05-31T06:55:45.625Z,32.83
2018-05-31T06:56:52.775Z,32.72
2018-05-31T06:57:59.168Z,32.80
2018-05-31T06:59:05.428Z,34.03
2018-05-31T07:00:12.450Z,31.35
2018-05-31T07:01:19.447Z,32.75
2018-05-31T07:02:25.736Z,32.58
2018-05-31T07:03:32.051Z,32.00
2018-05-31T07:04:38.410Z,31.98
2018-05-31T07:05:44.679Z,34.22
2018-05-31T07:06:51.045Z,33.03
2018-05-31T07:07:57.316Z,33.85
2018-05-31T07:09:06.040Z,32.20
2018-05-31T07:10:12.312Z,34.10
2018-05-31T07:11:18.710Z,32.65
2018-05-31T07:12:25.049Z,32.80
2018-05-31T07:13:31.470Z,33.03
2018-05-31T07:14:37.773Z,31.73
2018-05-31T07:15:45.167Z,33.42
2018-05-31T07:16:52.066Z,30.17
2018-05-31T07:17:57.951Z,31.62
2018-05-31T07:19:04.233Z,31.12
2018-05-31T07:20:10.553Z,32.83
2018-05-31T07:21:16.867Z,30.25
2018-05-31T07:22:23.773Z,30.95
2018-05-31T07:23:30.214Z,31.95
2018-05-31T07:24:36.502Z,30.40
2018-05-31T07:25:42.827Z,31.77
2018-05-31T07:26:49.105Z,32.90
2018-05-31T07:27:56.166Z,30.45
2018-05-31T07:29:02.453Z,32.67
2018-05-31T07:30:15.848Z,31.17
2018-05-31T07:31:22.964Z,31.90
2018-05-31T07:32:29.783Z,32.85
2018-05-31T07:33:35.843Z,32.25
2018-05-31T07:34:42.202Z,30.17
2018-05-31T07:35:48.504Z,31.90
2018-05-31T07:36:54.869Z,30.73
2018-05-31T07:38:01.173Z,32.95
2018-05-31T07:39:07.452Z,30.77
2018-05-31T07:40:13.763Z,30.88
2018-05-31T07:41:20.072Z,30.60
2018-05-31T07:42:26.453Z,31.02
2018-05-31T07:43:32.693Z,32.72
2018-05-31T07:44:39.007Z,32.03
2018-05-31T07:45:45.148Z,30.55
2018-05-31T07:46:51.428Z,30.20
2018-05-31T07:47:58.496Z,28.80
2018-05-31T07:49:04.710Z,29.15
2018-05-31T07:50:11.022Z,27.85
2018-05-31T07:51:17.331Z,32.38
2018-05-31T07:52:23.946Z,30.30
2018-05-31T07:53:30.245Z,27.48
2018-05-31T07:54:36.558Z,30.08
2018-05-31T07:55:42.848Z,29.65
2018-05-31T07:56:49.270Z,31.62
2018-05-31T07:57:55.608Z,32.33
2018-05-31T07:59:01.895Z,30.25
2018-05-31T08:00:13.274Z,29.42
2018-05-31T08:01:20.543Z,26.48
2018-05-31T08:02:26.889Z,28.98
2018-05-31T08:03:33.988Z,28.52
2018-05-31T08:04:40.312Z,25.40
2018-05-31T08:05:46.672Z,25.70
2018-05-31T08:06:53.274Z,24.77
2018-05-31T08:07:59.569Z,25.95
2018-05-31T08:09:06.052Z,25.83
2018-05-31T08:10:12.062Z,29.60
2018-05-31T08:11:18.419Z,27.40
2018-05-31T08:12:32.867Z,24.60
2018-05-31T08:13:38.821Z,25.12
2018-05-31T08:14:44.888Z,25.33
2018-05-31T08:15:56.521Z,27.00
2018-05-31T08:17:02.644Z,27.77
2018-05-31T08:18:09.970Z,26.15
2018-05-31T08:19:16.505Z,25.23
2018-05-31T08:20:22.838Z,27.05
2018-05-31T08:21:29.137Z,24.37
2018-05-31T08:22:35.260Z,24.70
2018-05-31T08:23:41.683Z,23.65
2018-05-31T08:24:47.640Z,24.90
2018-05-31T08:25:54.048Z,24.42
2018-05-31T08:27:00.362Z,26.35
2018-05-31T08:28:06.412Z,26.07
2018-05-31T08:29:13.026Z,24.87
2018-05-31T08:30:19.123Z,25.27
2018-05-31T08:31:25.564Z,24.37
2018-05-31T08:32:32.166Z,24.35
2018-05-31T08:33:38.850Z,26.35
2018-05-31T08:34:45.689Z,25.70
2018-05-31T08:35:51.811Z,25.20
2018-05-31T08:36:58.992Z,25.85
2018-05-31T08:38:05.248Z,24.12
2018-05-31T08:39:10.941Z,23.52
2018-05-31T08:40:22.353Z,23.33
2018-05-31T08:41:28.119Z,23.80
2018-05-31T08:42:33.925Z,24.80
2018-05-31T08:43:40.055Z,22.25
2018-05-31T08:44:46.093Z,21.50
2018-05-31T08:45:52.159Z,24.87
2018-05-31T08:46:58.255Z,23.30
2018-05-31T08:48:04.413Z,24.57
2018-05-31T08:49:10.407Z,23.67
2018-05-31T08:50:16.554Z,25.87
2018-05-31T08:51:22.664Z,23.03
2018-05-31T08:52:28.970Z,22.67
2018-05-31T08:53:35.089Z,22.87
2018-05-31T08:54:42.783Z,24.03
2018-05-31T08:55:48.901Z,23.20
2018-05-31T08:56:55.021Z,19.60
2018-05-31T08:58:01.141Z,20.50
2018-05-31T08:59:07.729Z,18.87
2018-05-31T09:00:13.766Z,18.10
2018-05-31T09:01:19.844Z,23.13
2018-05-31T09:02:25.968Z,22.27
2018-05-31T09:03:34.242Z,20.90
2018-05-31T09:04:40.437Z,23.37
2018-05-31T09:05:46.426Z,20.27
2018-05-31T09:06:52.546Z,20.23
2018-05-31T09:07:58.689Z,21.00
2018-05-31T09:09:03.818Z,19.90
2018-05-31T09:10:10.535Z,19.23
2018-05-31T09:11:17.140Z,18.87
2018-05-31T09:12:23.170Z,20.27
2018-05-31T09:13:29.196Z,20.27
2018-05-31T09:14:35.277Z,21.70
2018-05-31T09:15:41.411Z,21.37
2018-05-31T09:16:48.485Z,20.13
2018-05-31T09:17:54.625Z,21.03
2018-05-31T09:19:00.757Z,20.70
2018-05-31T09:20:06.865Z,21.80
2018-05-31T09:21:13.957Z,20.50
2018-05-31T09:22:22.309Z,21.80
2018-05-31T09:23:29.097Z,20.67
2018-05-31T09:24:35.159Z,18.80
2018-05-31T09:25:41.946Z,19.17
2018-05-31T09:26:48.657Z,21.97
2018-05-31T09:27:54.803Z,20.73
2018-05-31T09:29:00.849Z,20.33
2018-05-31T09:30:06.573Z,19.77
2018-05-31T09:31:12.672Z,17.63
2018-05-31T09:32:18.816Z,21.40
2018-05-31T09:33:25.024Z,18.70
2018-05-31T09:34:31.156Z,17.30
2018-05-31T09:35:37.612Z,18.77
2018-05-31T09:36:44.860Z,19.87
2018-05-31T09:37:50.871Z,21.00
2018-05-31T09:38:57.044Z,20.10
2018-05-31T09:40:03.112Z,19.80
2018-05-31T09:41:09.246Z,17.53
2018-05-31T09:42:16.273Z,16.30
2018-05-31T09:43:22.003Z,16.37
2018-05-31T09:44:28.188Z,15.20
2018-05-31T09:45:34.260Z,17.60
2018-05-31T09:46:40.441Z,17.80
2018-05-31T09:47:47.564Z,18.23
2018-05-31T09:48:53.743Z,18.60
2018-05-31T09:49:59.828Z,18.83
2018-05-31T09:51:05.264Z,19.57
2018-05-31T09:52:11.614Z,18.40
2018-05-31T09:53:17.651Z,19.40
2018-05-31T09:54:24.281Z,19.40
2018-05-31T09:55:30.260Z,18.30
2018-05-31T09:56:36.160Z,18.03
2018-05-31T09:57:50.167Z,17.97
2018-05-31T09:58:56.172Z,16.20
2018-05-31T10:00:02.257Z,16.40
2018-05-31T10:01:07.620Z,16.07
2018-05-31T10:02:13.572Z,17.90
2018-05-31T10:03:19.675Z,18.03
2018-05-31T10:04:25.787Z,16.93
2018-05-31T10:05:31.518Z,16.07
2018-05-31T10:06:37.626Z,16.10
2018-05-31T10:07:43.780Z,18.43
2018-05-31T10:08:49.930Z,14.53
2018-05-31T10:09:56.030Z,17.90
2018-05-31T10:11:02.107Z,18.07
2018-05-31T10:12:08.213Z,16.03
2018-05-31T10:13:15.263Z,19.13
2018-05-31T10:14:21.330Z,16.47
2018-05-31T10:15:27.357Z,18.27
2018-05-31T10:16:33.496Z,18.20
2018-05-31T10:17:40.618Z,15.43
2018-05-31T10:18:46.811Z,16.83
2018-05-31T10:19:52.666Z,16.40
2018-05-31T10:20:58.817Z,16.80
2018-05-31T10:22:04.632Z,17.47
2018-05-31T10:23:10.914Z,14.60
2018-05-31T10:24:16.768Z,15.57
2018-05-31T10:25:22.833Z,16.57
2018-05-31T10:26:28.954Z,15.20
2018-05-31T10:27:35.061Z,15.63
2018-05-31T10:28:41.152Z,16.90
2018-05-31T10:29:47.305Z,18.17
2018-05-31T10:30:52.974Z,18.00
2018-05-31T10:31:59.265Z,17.20
2018-05-31T10:33:06.016Z,15.93
2018-05-31T10:34:12.843Z,16.20
2018-05-31T10:35:18.937Z,18.40
2018-05-31T10:36:25.034Z,18.13
2018-05-31T10:37:31.164Z,17.17
2018-05-31T10:38:37.248Z,16.37
2018-05-31T10:39:44.101Z,15.83
2018-05-31T10:40:49.844Z,16.87
2018-05-31T10:41:55.976Z,17.50
2018-05-31T10:43:02.089Z,16.83
2018-05-31T10:44:08.242Z,18.20
2018-05-31T10:45:14.305Z,17.70
2018-05-31T10:46:20.926Z,18.20
2018-05-31T10:47:27.029Z,17.50
2018-05-31T10:48:32.493Z,16.67
2018-05-31T10:49:39.170Z,16.10
2018-05-31T10:50:45.175Z,16.47
2018-05-31T10:51:51.761Z,15.93
2018-05-31T10:52:57.871Z,16.40
2018-05-31T10:54:04.492Z,16.57
2018-05-31T10:55:10.149Z,17.23
2018-05-31T10:56:16.304Z,17.23
2018-05-31T10:57:23.425Z,17.67
2018-05-31T10:58:29.432Z,18.07
2018-05-31T10:59:35.567Z,16.20
2018-05-31T11:00:41.656Z,16.47
2018-05-31T11:01:47.749Z,14.93
2018-05-31T11:02:54.194Z,17.57
2018-05-31T11:04:00.284Z,17.37
2018-05-31T11:05:06.429Z,15.80
2018-05-31T11:06:12.512Z,16.10
2018-05-31T11:07:18.596Z,15.70
2018-05-31T11:08:24.964Z,13.97
2018-05-31T11:09:31.421Z,15.27
2018-05-31T11:10:37.438Z,14.60
2018-05-31T11:11:43.541Z,14.57
2018-05-31T11:12:49.673Z,15.80
2018-05-31T11:13:55.753Z,15.20
2018-05-31T11:15:01.918Z,14.83
2018-05-31T11:16:08.213Z,13.63
2018-05-31T11:17:14.287Z,13.37
2018-05-31T11:18:20.930Z,13.37
2018-05-31T11:19:27.009Z,12.57
2018-05-31T11:20:33.156Z,12.40
2018-05-31T11:21:39.093Z,12.40
2018-05-31T11:22:46.301Z,13.20
2018-05-31T11:23:52.456Z,12.10
2018-05-31T11:24:58.287Z,13.37
2018-05-31T11:26:04.377Z,13.07
2018-05-31T11:27:10.481Z,13.47
2018-05-31T11:28:16.576Z,12.97
2018-05-31T11:29:22.389Z,14.67
2018-05-31T11:30:29.549Z,12.67
2018-05-31T11:31:35.413Z,12.60
2018-05-31T11:32:41.572Z,12.53
2018-05-31T11:33:47.708Z,13.00
2018-05-31T11:34:54.044Z,13.30
2018-05-31T11:36:01.903Z,13.87
2018-05-31T11:37:07.665Z,13.30
2018-05-31T11:38:13.893Z,12.57
2018-05-31T11:39:20.217Z,13.20
2018-05-31T11:40:26.353Z,11.20
2018-05-31T11:41:32.488Z,12.67
2018-05-31T11:42:38.843Z,10.60
2018-05-31T11:43:44.920Z,11.80
2018-05-31T11:44:51.024Z,12.90
2018-05-31T11:45:57.860Z,10.80
2018-05-31T11:47:04.670Z,10.00
2018-05-31T11:48:10.500Z,9.67
2018-05-31T11:49:16.619Z,13.73
2018-05-31T11:50:23.693Z,11.30
2018-05-31T11:51:29.856Z,11.50
2018-05-31T11:52:35.656Z,12.27
2018-05-31T11:53:41.764Z,12.50
2018-05-31T11:54:47.869Z,11.97
2018-05-31T11:55:53.811Z,12.70
2018-05-31T11:56:59.681Z,11.87
2018-05-31T11:58:05.429Z,11.57
2018-05-31T11:59:11.278Z,11.43
2018-05-31T12:00:17.416Z,12.17
2018-05-31T12:01:23.491Z,12.23
2018-05-31T12:02:29.513Z,10.40
2018-05-31T12:03:35.637Z,11.07
2018-05-31T12:04:41.722Z,11.60
2018-05-31T12:05:47.852Z,14.20
2018-05-31T12:06:53.939Z,13.20
2018-05-31T12:08:00.037Z,11.73
2018-05-31T12:09:06.639Z,14.30
2018-05-31T12:10:12.656Z,12.93
2018-05-31T12:11:20.619Z,12.93
2018-05-31T12:12:26.732Z,11.50
2018-05-31T12:13:32.754Z,12.07
2018-05-31T12:14:38.925Z,13.10
2018-05-31T12:15:44.717Z,12.13
2018-05-31T12:16:52.420Z,12.27
2018-05-31T12:17:59.620Z,13.50
2018-05-31T12:19:05.913Z,12.67
2018-05-31T12:20:12.941Z,13.07
2018-05-31T12:21:19.087Z,11.80
2018-05-31T12:22:25.955Z,13.87
2018-05-31T12:23:32.058Z,12.50
2018-05-31T12:24:38.102Z,12.57
2018-05-31T12:25:44.229Z,12.93
2018-05-31T12:26:50.418Z,13.70
2018-05-31T12:27:56.528Z,12.70
2018-05-31T12:29:02.593Z,12.67
2018-05-31T12:30:08.693Z,12.57
2018-05-31T12:31:14.974Z,12.60
2018-05-31T12:32:20.717Z,12.60
2018-05-31T12:33:26.838Z,13.47
2018-05-31T12:34:32.978Z,12.57
2018-05-31T12:35:39.403Z,12.53
2018-05-31T12:36:45.498Z,12.90
2018-05-31T12:37:51.886Z,12.90
2018-05-31T12:38:58.677Z,12.30
2018-05-31T12:40:04.949Z,13.30
2018-05-31T12:41:11.985Z,12.83
2018-05-31T12:42:18.075Z,12.87
2018-05-31T12:43:23.840Z,13.53
2018-05-31T12:44:29.669Z,12.30
2018-05-31T12:45:35.773Z,12.40
2018-05-31T12:46:41.907Z,12.07
2018-05-31T12:47:47.997Z,12.40
2018-05-31T12:48:54.089Z,12.20
2018-05-31T12:50:00.192Z,12.23
2018-05-31T12:51:06.106Z,11.30
2018-05-31T12:52:12.933Z,11.70
2018-05-31T12:53:19.980Z,11.77
2018-05-31T12:54:26.426Z,11.87
2018-05-31T12:55:32.593Z,10.80
2018-05-31T12:56:39.390Z,11.73
2018-05-31T12:57:45.501Z,12.57
2018-05-31T12:58:52.142Z,12.40
2018-05-31T12:59:58.235Z,12.87
2018-05-31T13:01:04.029Z,12.27
2018-05-31T13:02:10.654Z,12.17
2018-05-31T13:03:16.761Z,11.97
2018-05-31T13:04:22.481Z,12.17
2018-05-31T13:05:28.576Z,11.93
2018-05-31T13:06:35.529Z,10.90
2018-05-31T13:07:41.604Z,11.77
2018-05-31T13:08:47.729Z,10.57
2018-05-31T13:09:54.223Z,11.43
2018-05-31T13:11:00.316Z,11.87
2018-05-31T13:12:06.164Z,11.20
2018-05-31T13:13:11.999Z,11.37
2018-05-31T13:14:19.016Z,11.63
2018-05-31T13:15:25.698Z,10.83
2018-05-31T13:16:31.787Z,10.40
2018-05-31T13:17:37.896Z,11.77
2018-05-31T13:18:44.077Z,11.97
2018-05-31T13:19:50.421Z,10.73
2018-05-31T13:20:56.838Z,12.30
2018-05-31T13:22:02.965Z,10.47
2018-05-31T13:23:08.751Z,11.00
2018-05-31T13:24:14.859Z,12.17
2018-05-31T13:25:21.476Z,11.10
2018-05-31T13:26:27.805Z,11.77
2018-05-31T13:27:33.785Z,11.57
2018-05-31T13:28:40.817Z,11.90
2018-05-31T13:29:46.996Z,12.83
2018-05-31T13:30:53.554Z,11.17
2018-05-31T13:31:59.217Z,11.10
2018-05-31T13:33:05.352Z,11.97
2018-05-31T13:34:11.479Z,11.00
2018-05-31T13:35:17.559Z,10.80
2018-05-31T13:36:23.680Z,11.37
2018-05-31T13:37:30.341Z,10.43
2018-05-31T13:38:36.409Z,11.93
2018-05-31T13:39:42.536Z,11.47
2018-05-31T13:40:48.620Z,11.67
2018-05-31T13:41:54.765Z,10.30
2018-05-31T13:43:00.929Z,10.70
2018-05-31T13:44:07.033Z,10.20
2018-05-31T13:45:13.144Z,10.13
2018-05-31T13:46:19.245Z,9.90
2018-05-31T13:47:25.288Z,9.40
2018-05-31T13:48:31.365Z,9.93
2018-05-31T13:49:37.367Z,10.13
2018-05-31T13:50:43.741Z,9.87
2018-05-31T13:51:49.988Z,10.07
2018-05-31T13:52:56.015Z,9.57
2018-05-31T13:54:02.033Z,10.80
2018-05-31T13:55:08.005Z,9.97
2018-05-31T13:56:14.142Z,8.90
2018-05-31T13:57:20.244Z,9.23
2018-05-31T13:58:25.912Z,9.97
2018-05-31T13:59:32.156Z,9.67
2018-05-31T14:00:38.292Z,9.03
2018-05-31T14:01:44.479Z,10.70
2018-05-31T14:02:50.573Z,9.33
2018-05-31T14:03:56.772Z,9.50
2018-05-31T14:05:02.846Z,9.60
2018-05-31T14:06:09.041Z,8.60
2018-05-31T14:07:17.881Z,9.50
2018-05-31T14:08:23.946Z,8.87
2018-05-31T14:09:30.340Z,9.30
2018-05-31T14:10:37.489Z,8.60
2018-05-31T14:11:43.808Z,9.17
2018-05-31T14:12:49.596Z,9.50
2018-05-31T14:13:55.340Z,10.10
2018-05-31T14:15:01.602Z,8.97
2018-05-31T14:16:07.792Z,10.10
2018-05-31T14:17:13.977Z,9.77
2018-05-31T14:18:20.635Z,10.83